Copenhagen — V2FI5 — position and weather

sailwx.info

Track history (hours):
 
Tides and Currents Weather Stations Pressure Air Temp Water Temp Dewpoint Dewpoint Depression Visibility Wind Speed Wind Dir Waves Ship Positions

Copenhagen

Last reported at 2018-Feb-15 03:16 UTC. Time now 2018-May-20 14:06 UTC.
Position N 37°30' E 025°55'.
Warning: this ship's position is months out of date.

Length 108 m; draft 6.5 m.

Type: Cargo ship. MMSI: 244325984.

Date/timePositionNaut miles runAvg speedWind from/ knotsBaromVisibWave heightAir tempDewpointWater temp
2018-Feb-15 03:16N 37°30' E 025°55'311.4
2018-Feb-15 03:00N 37°33' E 025°55'  
2018-Feb-08 17:30N 43°53' E 028°49'1212.1
2018-Feb-08 16:30N 44°05' E 028°43'5 0.3
2018-Feb-08 01:29N 44°09' E 028°39'0 0.0
2018-Feb-08 00:58N 44°09' E 028°39'0 0.0
2018-Feb-08 00:25N 44°09' E 028°39'0 0.0
2018-Feb-07 23:59N 44°09' E 028°39'0 0.0
2018-Feb-07 23:29N 44°09' E 028°39'0 0.0
2018-Feb-07 22:58N 44°09' E 028°39'0 0.0
2018-Feb-07 22:28N 44°09' E 028°39'0 0.0
2018-Feb-07 21:58N 44°09' E 028°39'0 0.0
2018-Feb-07 21:28N 44°09' E 028°39'7 0.6
2018-Feb-07 09:30N 44°07' E 028°49'0 0.0
2018-Feb-07 08:59N 44°07' E 028°49'0 0.0
2018-Feb-07 08:29N 44°07' E 028°49'0 0.0
2018-Feb-07 07:59N 44°07' E 028°49'0 0.0
2018-Feb-07 07:30N 44°07' E 028°49'0 0.0
2018-Feb-07 06:59N 44°07' E 028°49'0 0.0
2018-Feb-07 06:29N 44°07' E 028°49'0 0.0
2018-Feb-07 05:59N 44°07' E 028°49'0 0.0
2018-Feb-07 05:29N 44°07' E 028°49'0 0.0
2018-Feb-07 04:59N 44°07' E 028°49'0 0.0
2018-Feb-07 04:29N 44°07' E 028°49'0 0.0
2018-Feb-07 03:59N 44°07' E 028°49'0 0.0
2018-Feb-07 03:29N 44°07' E 028°49'0 0.0
2018-Feb-07 02:59N 44°07' E 028°49'0 0.0
2018-Feb-07 02:29N 44°07' E 028°49'0 0.0
2018-Feb-07 01:59N 44°07' E 028°49'0 0.0
2018-Feb-07 01:29N 44°07' E 028°49'0 0.0
2018-Feb-07 00:59N 44°07' E 028°49'0 0.0
2018-Feb-07 00:29N 44°07' E 028°49'0 0.0
2018-Feb-06 23:59N 44°07' E 028°49'0 0.0
2018-Feb-06 23:29N 44°07' E 028°49'0 0.0
2018-Feb-06 22:59N 44°07' E 028°49'0 0.0
2018-Feb-06 22:29N 44°07' E 028°49'0 0.0
2018-Feb-06 21:56N 44°07' E 028°49'0 0.0
2018-Feb-06 21:29N 44°07' E 028°49'0 0.0
2018-Feb-06 20:59N 44°07' E 028°49'0 0.0
2018-Feb-06 20:29N 44°07' E 028°49'0 0.0
2018-Feb-06 19:59N 44°07' E 028°49'0 0.0
2018-Feb-06 19:29N 44°07' E 028°49'0 0.0
2018-Feb-06 18:59N 44°07' E 028°49'0 0.0
2018-Feb-06 18:29N 44°07' E 028°49'0 0.0
2018-Feb-06 17:59N 44°07' E 028°49'0 0.0
2018-Feb-06 17:29N 44°07' E 028°49'0 0.0
2018-Feb-06 16:59N 44°07' E 028°49'0 0.0
2018-Feb-06 16:29N 44°07' E 028°49'0 0.0
2018-Feb-06 15:59N 44°07' E 028°49'0 0.0
2018-Feb-06 15:29N 44°07' E 028°49'0 0.0
2018-Feb-06 14:59N 44°07' E 028°49'0 0.0
2018-Feb-06 14:29N 44°07' E 028°49'0 0.0
2018-Feb-06 13:59N 44°07' E 028°49'0 0.0
2018-Feb-06 13:23N 44°07' E 028°49'0 0.0
2018-Feb-06 12:59N 44°07' E 028°49'0 0.0
2018-Feb-06 12:29N 44°07' E 028°49'0 0.0
2018-Feb-06 11:59N 44°07' E 028°49'0 0.0
2018-Feb-06 11:23N 44°07' E 028°49'0 0.0
2018-Feb-06 10:59N 44°07' E 028°49'0 0.0
2018-Feb-06 10:29N 44°07' E 028°49'0 0.2
2018-Feb-06 10:00N 44°07' E 028°49'1110.6
2018-Feb-06 09:00N 43°56' E 028°50'1212.4
2018-Feb-06 08:00N 43°44' E 028°52'16211.7
2018-Feb-05 18:09N 41°02' E 028°60'3 8.0
2018-Feb-05 17:50N 40°59' E 028°60'2 6.3
2018-Feb-05 17:30N 40°57' E 028°59'5 8.7
2018-Feb-05 16:58N 40°53' E 028°56'  
Track history (hours):
 
Tides and Currents Weather Stations Pressure Air Temp Water Temp Dewpoint Dewpoint Depression Visibility Wind Speed Wind Dir Waves Ship Positions

Copenhagen

Last reported at 2018-Feb-15 03:16 UTC. Time now 2018-May-20 14:06 UTC.
Position N 37°30' E 025°55'.
Warning: this ship's position is months out of date.

Length 108 m; draft 6.5 m.

Type: Cargo ship. MMSI: 244325984.

Date/timePositionNaut miles runAvg speedWind from/ knotsBaromVisibWave heightAir tempDewpointWater temp
2018-Feb-15 03:16N 37°30' E 025°55'311.4
2018-Feb-15 03:00N 37°33' E 025°55'  
2018-Feb-08 17:30N 43°53' E 028°49'1212.1
2018-Feb-08 16:30N 44°05' E 028°43'5 0.3
2018-Feb-08 01:29N 44°09' E 028°39'0 0.0
2018-Feb-08 00:58N 44°09' E 028°39'0 0.0
2018-Feb-08 00:25N 44°09' E 028°39'0 0.0
2018-Feb-07 23:59N 44°09' E 028°39'0 0.0
2018-Feb-07 23:29N 44°09' E 028°39'0 0.0
2018-Feb-07 22:58N 44°09' E 028°39'0 0.0
2018-Feb-07 22:28N 44°09' E 028°39'0 0.0
2018-Feb-07 21:58N 44°09' E 028°39'0 0.0
2018-Feb-07 21:28N 44°09' E 028°39'7 0.6
2018-Feb-07 09:30N 44°07' E 028°49'0 0.0
2018-Feb-07 08:59N 44°07' E 028°49'0 0.0
2018-Feb-07 08:29N 44°07' E 028°49'0 0.0
2018-Feb-07 07:59N 44°07' E 028°49'0 0.0
2018-Feb-07 07:30N 44°07' E 028°49'0 0.0
2018-Feb-07 06:59N 44°07' E 028°49'0 0.0
2018-Feb-07 06:29N 44°07' E 028°49'0 0.0
2018-Feb-07 05:59N 44°07' E 028°49'0 0.0
2018-Feb-07 05:29N 44°07' E 028°49'0 0.0
2018-Feb-07 04:59N 44°07' E 028°49'0 0.0
2018-Feb-07 04:29N 44°07' E 028°49'0 0.0
2018-Feb-07 03:59N 44°07' E 028°49'0 0.0
2018-Feb-07 03:29N 44°07' E 028°49'0 0.0
2018-Feb-07 02:59N 44°07' E 028°49'0 0.0
2018-Feb-07 02:29N 44°07' E 028°49'0 0.0
2018-Feb-07 01:59N 44°07' E 028°49'0 0.0
2018-Feb-07 01:29N 44°07' E 028°49'0 0.0
2018-Feb-07 00:59N 44°07' E 028°49'0 0.0
2018-Feb-07 00:29N 44°07' E 028°49'0 0.0
2018-Feb-06 23:59N 44°07' E 028°49'0 0.0
2018-Feb-06 23:29N 44°07' E 028°49'0 0.0
2018-Feb-06 22:59N 44°07' E 028°49'0 0.0
2018-Feb-06 22:29N 44°07' E 028°49'0 0.0
2018-Feb-06 21:56N 44°07' E 028°49'0 0.0
2018-Feb-06 21:29N 44°07' E 028°49'0 0.0
2018-Feb-06 20:59N 44°07' E 028°49'0 0.0
2018-Feb-06 20:29N 44°07' E 028°49'0 0.0
2018-Feb-06 19:59N 44°07' E 028°49'0 0.0
2018-Feb-06 19:29N 44°07' E 028°49'0 0.0
2018-Feb-06 18:59N 44°07' E 028°49'0 0.0
2018-Feb-06 18:29N 44°07' E 028°49'0 0.0
2018-Feb-06 17:59N 44°07' E 028°49'0 0.0
2018-Feb-06 17:29N 44°07' E 028°49'0 0.0
2018-Feb-06 16:59N 44°07' E 028°49'0 0.0
2018-Feb-06 16:29N 44°07' E 028°49'0 0.0
2018-Feb-06 15:59N 44°07' E 028°49'0 0.0
2018-Feb-06 15:29N 44°07' E 028°49'0 0.0
2018-Feb-06 14:59N 44°07' E 028°49'0 0.0
2018-Feb-06 14:29N 44°07' E 028°49'0 0.0
2018-Feb-06 13:59N 44°07' E 028°49'0 0.0
2018-Feb-06 13:23N 44°07' E 028°49'0 0.0
2018-Feb-06 12:59N 44°07' E 028°49'0 0.0
2018-Feb-06 12:29N 44°07' E 028°49'0 0.0
2018-Feb-06 11:59N 44°07' E 028°49'0 0.0
2018-Feb-06 11:23N 44°07' E 028°49'0 0.0
2018-Feb-06 10:59N 44°07' E 028°49'0 0.0
2018-Feb-06 10:29N 44°07' E 028°49'0 0.2
2018-Feb-06 10:00N 44°07' E 028°49'1110.6
2018-Feb-06 09:00N 43°56' E 028°50'1212.4
2018-Feb-06 08:00N 43°44' E 028°52'16211.7
2018-Feb-05 18:09N 41°02' E 028°60'3 8.0
2018-Feb-05 17:50N 40°59' E 028°60'2 6.3
2018-Feb-05 17:30N 40°57' E 028°59'5 8.7
2018-Feb-05 16:58N 40°53' E 028°56'  

Dump ship's entire track history